createdAt,value
2023-04-09T00:00:32.114Z,10.43
2023-04-09T00:03:22.595Z,12.07
2023-04-09T00:06:12.694Z,11.63
2023-04-09T00:09:01.450Z,16.67
2023-04-09T00:11:49.959Z,11.90
2023-04-09T00:14:38.527Z,12.37
2023-04-09T00:17:27.066Z,9.67
2023-04-09T00:20:17.227Z,14.17
2023-04-09T00:23:06.069Z,9.50
2023-04-09T00:25:54.684Z,10.40
2023-04-09T00:28:43.186Z,10.17
2023-04-09T00:31:31.756Z,10.40
2023-04-09T00:34:20.295Z,12.00
2023-04-09T00:37:10.382Z,9.97
2023-04-09T00:39:58.879Z,11.63
2023-04-09T00:42:48.080Z,9.73
2023-04-09T00:45:36.907Z,10.23
2023-04-09T00:48:25.645Z,9.40
2023-04-09T00:51:14.184Z,9.53
2023-04-09T00:54:04.195Z,10.03
2023-04-09T00:56:53.248Z,12.10
2023-04-09T00:59:41.830Z,10.20
2023-04-09T01:02:30.960Z,10.07
2023-04-09T01:05:20.433Z,11.83
2023-04-09T01:08:14.150Z,10.73
2023-04-09T01:11:10.684Z,10.50
2023-04-09T01:14:08.039Z,11.93
2023-04-09T01:17:00.733Z,11.10
2023-04-09T01:19:52.410Z,11.37
2023-04-09T01:23:05.563Z,10.47
2023-04-09T01:26:03.289Z,11.93
2023-04-09T01:28:55.139Z,12.07
2023-04-09T01:31:44.165Z,10.10
2023-04-09T01:34:32.919Z,9.77
2023-04-09T01:37:21.792Z,12.77
2023-04-09T01:40:11.095Z,11.27
2023-04-09T01:42:59.796Z,14.60
2023-04-09T01:45:49.836Z,11.03
2023-04-09T01:48:38.772Z,11.20
2023-04-09T01:51:27.926Z,9.50
2023-04-09T01:54:17.312Z,11.37
2023-04-09T01:57:05.860Z,11.10
2023-04-09T01:59:55.596Z,12.00
2023-04-09T02:02:48.152Z,12.23
2023-04-09T02:05:39.751Z,11.13
2023-04-09T02:08:29.847Z,13.43
2023-04-09T02:11:18.578Z,12.17
2023-04-09T02:14:09.152Z,10.87
2023-04-09T02:16:57.970Z,14.13
2023-04-09T02:19:48.678Z,13.00
2023-04-09T02:22:37.245Z,12.60
2023-04-09T02:25:26.302Z,12.47
2023-04-09T02:28:14.850Z,14.43
2023-04-09T02:31:03.845Z,12.07
2023-04-09T02:33:54.073Z,14.23
2023-04-09T02:36:43.911Z,15.07
2023-04-09T02:39:32.400Z,13.30
2023-04-09T02:42:21.788Z,14.23
2023-04-09T02:45:11.193Z,13.07
2023-04-09T02:47:59.773Z,11.87
2023-04-09T02:50:48.351Z,11.50
2023-04-09T02:53:40.706Z,11.30
2023-04-09T02:56:29.250Z,11.43
2023-04-09T02:59:17.727Z,11.03
2023-04-09T03:02:06.444Z,11.23
2023-04-09T03:04:55.108Z,13.83
2023-04-09T03:07:43.661Z,16.40
2023-04-09T03:10:33.573Z,13.00
2023-04-09T03:13:22.087Z,12.57
2023-04-09T03:16:11.119Z,13.37
2023-04-09T03:18:59.951Z,12.50
2023-04-09T03:21:49.260Z,14.50
2023-04-09T03:24:37.716Z,11.57
2023-04-09T03:27:27.552Z,13.03
2023-04-09T03:30:16.212Z,12.00
2023-04-09T03:33:04.829Z,12.00
2023-04-09T03:35:53.461Z,11.50
2023-04-09T03:38:41.970Z,12.57
2023-04-09T03:41:30.448Z,15.20
2023-04-09T03:44:20.596Z,14.53
2023-04-09T03:47:09.086Z,13.87
2023-04-09T03:49:57.612Z,13.93
2023-04-09T03:52:46.059Z,14.97
2023-04-09T03:55:34.714Z,15.57
2023-04-09T03:58:23.154Z,14.30
2023-04-09T04:01:13.015Z,16.60
2023-04-09T04:04:01.712Z,14.60
2023-04-09T04:06:50.372Z,14.47
2023-04-09T04:09:38.866Z,17.60
2023-04-09T04:12:27.362Z,15.60
2023-04-09T04:15:16.274Z,12.97
2023-04-09T04:18:06.134Z,14.77
2023-04-09T04:20:54.642Z,15.43
2023-04-09T04:23:43.337Z,12.63
2023-04-09T04:26:31.853Z,16.03
2023-04-09T04:29:20.621Z,14.30
2023-04-09T04:32:09.138Z,15.17
2023-04-09T04:34:58.926Z,13.90
2023-04-09T04:37:50.697Z,15.80
2023-04-09T04:40:39.153Z,13.87
2023-04-09T04:43:27.725Z,16.97
2023-04-09T04:46:16.378Z,14.10
2023-04-09T04:49:04.966Z,15.30
2023-04-09T04:51:54.793Z,16.17
2023-04-09T04:54:43.307Z,17.63
2023-04-09T04:57:31.850Z,13.07
2023-04-09T05:00:20.711Z,15.80
2023-04-09T05:03:09.316Z,18.13
2023-04-09T05:05:57.847Z,16.17
2023-04-09T05:08:47.724Z,17.00
2023-04-09T05:11:36.174Z,14.70
2023-04-09T05:14:25.150Z,15.40
2023-04-09T05:17:13.957Z,18.40
2023-04-09T05:20:02.549Z,15.17
2023-04-09T05:22:51.047Z,17.50
2023-04-09T05:25:41.106Z,16.87
2023-04-09T05:28:29.604Z,14.47
2023-04-09T05:31:18.360Z,19.00
2023-04-09T05:34:07.183Z,16.73
2023-04-09T05:36:55.772Z,14.17
2023-04-09T05:39:44.279Z,18.50
2023-04-09T05:42:34.205Z,16.83
2023-04-09T05:45:22.738Z,16.93
2023-04-09T05:48:11.359Z,16.73
2023-04-09T05:51:01.009Z,22.67
2023-04-09T05:53:50.036Z,19.07
2023-04-09T05:56:38.631Z,17.60
2023-04-09T05:59:28.578Z,16.57
2023-04-09T06:02:17.177Z,17.07
2023-04-09T06:05:06.407Z,19.50
2023-04-09T06:07:54.977Z,20.33
2023-04-09T06:10:46.335Z,18.13
2023-04-09T06:13:35.091Z,18.83
2023-04-09T06:16:24.886Z,17.60
2023-04-09T06:19:13.490Z,20.13
2023-04-09T06:22:02.014Z,18.77
2023-04-09T06:24:50.572Z,14.93
2023-04-09T06:27:39.083Z,14.80
2023-04-09T06:30:27.590Z,18.73
2023-04-09T06:33:23.715Z,18.47
2023-04-09T06:36:12.366Z,16.37
2023-04-09T06:39:00.908Z,15.87
2023-04-09T06:41:49.463Z,17.53
2023-04-09T06:44:38.014Z,15.87
2023-04-09T06:47:27.108Z,19.67
2023-04-09T06:50:17.874Z,16.37
2023-04-09T06:53:08.056Z,16.30
2023-04-09T06:55:57.268Z,17.03
2023-04-09T06:58:45.892Z,15.80
2023-04-09T07:01:35.516Z,18.17
2023-04-09T07:04:24.228Z,16.77
2023-04-09T07:07:14.265Z,15.37
2023-04-09T07:10:02.890Z,16.20
2023-04-09T07:12:51.381Z,17.57
2023-04-09T07:15:40.661Z,16.57
2023-04-09T07:18:31.695Z,16.00
2023-04-09T07:21:20.439Z,16.40
2023-04-09T07:24:10.338Z,19.13
2023-04-09T07:26:58.825Z,16.20
2023-04-09T07:29:47.632Z,20.63
2023-04-09T07:32:36.395Z,16.27
2023-04-09T07:35:25.027Z,18.07
2023-04-09T07:38:13.658Z,17.37
2023-04-09T07:41:03.543Z,16.30
2023-04-09T07:43:52.057Z,15.63
2023-04-09T07:46:41.384Z,15.97
2023-04-09T07:49:29.989Z,19.03
2023-04-09T07:52:19.566Z,17.00
2023-04-09T07:55:08.447Z,17.17
2023-04-09T07:57:58.300Z,19.30
2023-04-09T08:00:46.971Z,16.00
2023-04-09T08:03:36.305Z,16.17
2023-04-09T08:06:26.348Z,19.03
2023-04-09T08:09:15.059Z,14.77
2023-04-09T08:12:03.854Z,17.57
2023-04-09T08:14:53.740Z,15.83
2023-04-09T08:17:42.401Z,17.20
2023-04-09T08:20:32.954Z,16.57
2023-04-09T08:23:21.451Z,15.90
2023-04-09T08:26:10.014Z,17.60
2023-04-09T08:28:59.004Z,15.00
2023-04-09T08:31:48.914Z,15.60
2023-04-09T08:34:37.572Z,15.57
2023-04-09T08:37:26.715Z,15.03
2023-04-09T08:40:15.554Z,14.30
2023-04-09T08:43:06.680Z,14.33
2023-04-09T08:45:58.052Z,15.30
2023-04-09T08:48:49.817Z,13.23
2023-04-09T08:51:39.346Z,11.40
2023-04-09T08:54:27.926Z,10.73
2023-04-09T08:57:17.845Z,10.83
2023-04-09T09:00:07.939Z,11.23
2023-04-09T09:03:03.424Z,11.73
2023-04-09T09:05:53.743Z,10.47
2023-04-09T09:08:42.364Z,11.90
2023-04-09T09:11:31.323Z,11.60
2023-04-09T09:14:20.699Z,6.90
2023-04-09T09:17:09.295Z,6.63
2023-04-09T09:19:58.109Z,10.13
2023-04-09T09:22:55.909Z,10.23
2023-04-09T09:25:44.639Z,10.07
2023-04-09T09:28:36.418Z,11.30
2023-04-09T09:31:24.947Z,9.40
2023-04-09T09:34:13.588Z,11.30
2023-04-09T09:37:02.363Z,13.07
2023-04-09T09:39:52.318Z,13.30
2023-04-09T09:42:55.840Z,12.33
2023-04-09T09:45:45.614Z,13.30
2023-04-09T09:48:35.087Z,10.77
2023-04-09T09:51:27.718Z,12.27
2023-04-09T09:54:19.082Z,12.90
2023-04-09T09:57:13.576Z,12.57
2023-04-09T10:00:03.942Z,11.73
2023-04-09T10:02:55.689Z,10.90
2023-04-09T10:05:44.682Z,11.20
2023-04-09T10:08:34.804Z,10.47
2023-04-09T10:11:24.376Z,10.93
2023-04-09T10:14:14.744Z,7.13
2023-04-09T10:17:03.939Z,5.90
2023-04-09T10:20:00.265Z,5.00
2023-04-09T10:22:50.227Z,9.40
2023-04-09T10:25:38.986Z,5.37
2023-04-09T10:28:27.513Z,4.20
2023-04-09T10:31:17.464Z,4.07
2023-04-09T10:34:05.914Z,4.60
2023-04-09T10:36:57.829Z,4.37
2023-04-09T10:39:47.532Z,4.40
2023-04-09T10:42:38.878Z,5.23
2023-04-09T10:45:40.648Z,4.73
2023-04-09T10:48:34.224Z,5.13
2023-04-09T10:51:22.822Z,4.77
2023-04-09T10:54:39.034Z,5.40
2023-04-09T10:57:27.992Z,5.83
2023-04-09T11:00:18.730Z,4.90
2023-04-09T11:03:23.174Z,4.93
2023-04-09T11:06:17.644Z,6.13
2023-04-09T11:09:06.174Z,5.00
2023-04-09T11:11:55.084Z,6.00
2023-04-09T11:14:43.572Z,4.97
2023-04-09T11:17:32.551Z,4.93
2023-04-09T11:20:22.524Z,5.43
2023-04-09T11:23:14.044Z,5.70
2023-04-09T11:26:02.959Z,5.70
2023-04-09T11:28:51.747Z,6.17
2023-04-09T11:31:40.521Z,5.70
2023-04-09T11:34:29.158Z,5.33
2023-04-09T11:37:18.038Z,5.17
2023-04-09T11:40:09.333Z,6.33
2023-04-09T11:42:57.867Z,5.07
2023-04-09T11:45:48.272Z,5.63
2023-04-09T11:48:37.340Z,4.97
2023-04-09T11:51:27.183Z,5.40
2023-04-09T11:54:15.938Z,5.70
2023-04-09T11:57:06.820Z,5.97
2023-04-09T11:59:55.385Z,5.13
2023-04-09T12:02:46.389Z,5.50
2023-04-09T12:05:37.115Z,5.50
2023-04-09T12:08:26.426Z,5.50
2023-04-09T12:11:17.113Z,5.37
2023-04-09T12:14:07.037Z,4.83
2023-04-09T12:16:55.698Z,6.43
2023-04-09T12:19:44.279Z,5.50
2023-04-09T12:22:33.029Z,5.43
2023-04-09T12:25:21.600Z,5.40
2023-04-09T12:28:12.277Z,5.87
2023-04-09T12:31:03.570Z,5.30
2023-04-09T12:33:52.325Z,5.23
2023-04-09T12:36:41.620Z,5.83
2023-04-09T12:39:31.349Z,4.60
2023-04-09T12:42:20.481Z,5.00
2023-04-09T12:45:10.420Z,5.03
2023-04-09T12:48:00.370Z,4.70
2023-04-09T12:50:48.993Z,5.67
2023-04-09T12:53:37.575Z,4.63
2023-04-09T12:56:27.368Z,5.40
2023-04-09T12:59:16.793Z,4.97
2023-04-09T13:02:05.483Z,5.20
2023-04-09T13:04:55.544Z,4.67
2023-04-09T13:07:44.415Z,4.93
2023-04-09T13:10:33.259Z,4.37
2023-04-09T13:13:22.066Z,5.37
2023-04-09T13:16:10.608Z,5.47
2023-04-09T13:18:59.158Z,5.90
2023-04-09T13:21:49.036Z,6.60
2023-04-09T13:24:37.679Z,5.70
2023-04-09T13:27:26.508Z,5.70
2023-04-09T13:30:15.344Z,5.17
2023-04-09T13:33:05.351Z,6.27
2023-04-09T13:35:54.713Z,5.57
2023-04-09T13:38:45.623Z,5.30
2023-04-09T13:41:35.504Z,5.00
2023-04-09T13:44:25.955Z,4.47
2023-04-09T13:47:16.686Z,4.37
2023-04-09T13:50:06.888Z,5.27
2023-04-09T13:52:55.664Z,4.90
2023-04-09T13:55:45.696Z,5.00
2023-04-09T13:58:36.216Z,5.70
2023-04-09T14:01:27.957Z,4.70
2023-04-09T14:04:16.676Z,5.53
2023-04-09T14:07:05.216Z,6.13
2023-04-09T14:09:53.845Z,5.63
2023-04-09T14:12:43.746Z,5.10
2023-04-09T14:15:32.330Z,4.87
2023-04-09T14:18:20.948Z,5.20
2023-04-09T14:21:10.304Z,4.50
2023-04-09T14:23:59.153Z,5.20
2023-04-09T14:26:47.727Z,5.33
2023-04-09T14:29:38.015Z,5.47
2023-04-09T14:32:26.540Z,5.50
2023-04-09T14:35:15.356Z,5.67
2023-04-09T14:38:04.685Z,5.13
2023-04-09T14:40:53.443Z,5.87
2023-04-09T14:43:42.030Z,5.20
2023-04-09T14:46:31.883Z,5.27
2023-04-09T14:49:20.435Z,5.20
2023-04-09T14:52:09.344Z,4.70
2023-04-09T14:54:58.119Z,4.93
2023-04-09T14:57:46.848Z,5.20
2023-04-09T15:00:36.104Z,6.00
2023-04-09T15:03:26.610Z,5.23
2023-04-09T15:06:15.623Z,5.30
2023-04-09T15:09:04.176Z,5.40
2023-04-09T15:11:54.019Z,5.37
2023-04-09T15:14:42.522Z,5.13
2023-04-09T15:17:31.140Z,4.90
2023-04-09T15:20:21.164Z,4.80
2023-04-09T15:23:09.702Z,4.97
2023-04-09T15:25:58.998Z,4.80
2023-04-09T15:28:47.610Z,4.33
2023-04-09T15:31:36.298Z,5.43
2023-04-09T15:34:25.848Z,5.13
2023-04-09T15:37:15.995Z,5.13
2023-04-09T15:40:05.256Z,4.40
2023-04-09T15:42:53.807Z,5.20
2023-04-09T15:45:42.330Z,4.87
2023-04-09T15:48:30.964Z,4.47
2023-04-09T15:51:19.498Z,4.23
2023-04-09T15:54:09.403Z,5.13
2023-04-09T15:56:57.954Z,4.43
2023-04-09T15:59:48.326Z,4.90
2023-04-09T16:02:38.662Z,4.57
2023-04-09T16:05:27.278Z,4.07
2023-04-09T16:08:15.893Z,4.53
2023-04-09T16:11:08.181Z,4.30
2023-04-09T16:13:57.217Z,5.00
2023-04-09T16:16:49.651Z,4.80
2023-04-09T16:19:38.578Z,4.73
2023-04-09T16:22:27.076Z,4.50
2023-04-09T16:25:15.592Z,4.33
2023-04-09T16:28:06.299Z,5.53
2023-04-09T16:30:54.820Z,4.33
2023-04-09T16:33:43.371Z,4.73
2023-04-09T16:36:33.490Z,5.07
2023-04-09T16:39:22.389Z,5.10
2023-04-09T16:42:12.112Z,5.40
2023-04-09T16:45:04.298Z,5.50
2023-04-09T16:47:53.998Z,5.70
2023-04-09T16:50:42.862Z,5.10
2023-04-09T16:53:31.375Z,4.50
2023-04-09T16:56:20.228Z,5.20
2023-04-09T16:59:08.768Z,5.43
2023-04-09T17:01:58.791Z,5.30
2023-04-09T17:04:48.321Z,5.50
2023-04-09T17:07:37.049Z,5.37
2023-04-09T17:10:25.551Z,5.60
2023-04-09T17:13:14.051Z,4.73
2023-04-09T17:16:02.899Z,5.90
2023-04-09T17:18:53.178Z,5.60
2023-04-09T17:21:41.978Z,5.07
2023-04-09T17:24:30.564Z,4.93
2023-04-09T17:27:19.631Z,5.77
2023-04-09T17:30:09.077Z,7.27
2023-04-09T17:32:57.644Z,5.50
2023-04-09T17:35:47.604Z,6.40
2023-04-09T17:38:36.406Z,5.23
2023-04-09T17:41:24.923Z,6.07
2023-04-09T17:44:13.514Z,5.30
2023-04-09T17:47:02.423Z,5.70
2023-04-09T17:49:51.521Z,5.77
2023-04-09T17:52:41.459Z,5.57
2023-04-09T17:55:30.487Z,5.30
2023-04-09T17:58:19.026Z,6.10
2023-04-09T18:01:08.395Z,5.67
2023-04-09T18:03:57.179Z,5.63
2023-04-09T18:06:45.861Z,6.30
2023-04-09T18:09:35.725Z,5.70
2023-04-09T18:12:25.447Z,6.37
2023-04-09T18:15:14.165Z,5.77
2023-04-09T18:18:02.763Z,5.87
2023-04-09T18:20:52.314Z,7.30
2023-04-09T18:23:41.131Z,9.00
2023-04-09T18:26:31.328Z,8.87
2023-04-09T18:29:19.848Z,8.23
2023-04-09T18:32:08.383Z,7.27
2023-04-09T18:34:56.954Z,7.73
2023-04-09T18:37:45.805Z,7.00
2023-04-09T18:40:34.299Z,5.80
2023-04-09T18:43:24.288Z,7.07
2023-04-09T18:46:12.812Z,6.37
2023-04-09T18:49:01.544Z,7.40
2023-04-09T18:51:50.373Z,6.47
2023-04-09T18:54:39.102Z,5.60
2023-04-09T18:57:27.661Z,7.57
2023-04-09T19:00:17.603Z,8.67
2023-04-09T19:03:06.392Z,9.00
2023-04-09T19:05:55.140Z,7.80
2023-04-09T19:08:43.644Z,7.03
2023-04-09T19:11:32.139Z,7.60
2023-04-09T19:14:20.744Z,7.00
2023-04-09T19:17:11.674Z,12.27
2023-04-09T19:20:00.211Z,9.80
2023-04-09T19:22:49.379Z,9.90
2023-04-09T19:25:37.897Z,8.40
2023-04-09T19:28:26.593Z,8.00
2023-04-09T19:31:16.038Z,7.93
2023-04-09T19:34:06.503Z,8.80
2023-04-09T19:36:55.134Z,9.30
2023-04-09T19:39:43.619Z,8.17
2023-04-09T19:42:32.770Z,12.10
2023-04-09T19:45:21.300Z,9.40
2023-04-09T19:48:09.902Z,9.00
2023-04-09T19:50:59.848Z,9.57
2023-04-09T19:53:49.264Z,9.60
2023-04-09T19:56:38.270Z,10.20
2023-04-09T19:59:27.171Z,12.23
2023-04-09T20:02:16.216Z,16.50
2023-04-09T20:05:05.098Z,13.17
2023-04-09T20:07:54.974Z,11.43
2023-04-09T20:10:46.423Z,11.77
2023-04-09T20:13:34.969Z,13.23
2023-04-09T20:16:23.831Z,12.17
2023-04-09T20:19:12.390Z,11.60
2023-04-09T20:22:01.210Z,10.97
2023-04-09T20:24:51.992Z,10.50
2023-04-09T20:27:40.860Z,11.10
2023-04-09T20:30:29.691Z,11.77
2023-04-09T20:33:18.724Z,12.37
2023-04-09T20:36:15.620Z,12.90
2023-04-09T20:39:04.536Z,12.00
2023-04-09T20:41:55.039Z,15.53
2023-04-09T20:44:44.797Z,12.70
2023-04-09T20:47:33.393Z,13.40
2023-04-09T20:50:21.987Z,11.00
2023-04-09T20:53:10.521Z,11.17
2023-04-09T20:55:59.209Z,12.33
2023-04-09T20:58:49.115Z,13.90
2023-04-09T21:01:37.789Z,11.70
2023-04-09T21:04:26.579Z,11.60
2023-04-09T21:07:15.703Z,12.23
2023-04-09T21:10:05.635Z,11.57
2023-04-09T21:12:54.119Z,10.70
2023-04-09T21:15:44.019Z,11.60
2023-04-09T21:18:32.534Z,11.70
2023-04-09T21:21:21.419Z,11.13
2023-04-09T21:24:10.032Z,12.13
2023-04-09T21:26:58.785Z,12.47
2023-04-09T21:29:47.350Z,11.37
2023-04-09T21:32:37.315Z,12.07
2023-04-09T21:35:25.950Z,13.20
2023-04-09T21:38:14.478Z,11.70
2023-04-09T21:41:03.033Z,10.77
2023-04-09T21:43:51.703Z,11.77
2023-04-09T21:46:41.675Z,11.27
2023-04-09T21:49:31.702Z,12.03
2023-04-09T21:52:20.624Z,11.60
2023-04-09T21:55:10.181Z,13.27
2023-04-09T21:57:59.044Z,12.07
2023-04-09T22:00:47.793Z,12.20
2023-04-09T22:03:37.207Z,13.10
2023-04-09T22:06:28.932Z,12.80
2023-04-09T22:09:17.704Z,12.93
2023-04-09T22:12:06.979Z,12.47
2023-04-09T22:14:55.536Z,13.57
2023-04-09T22:17:44.200Z,14.10
2023-04-09T22:20:33.323Z,14.20
2023-04-09T22:23:23.233Z,15.40
2023-04-09T22:26:11.939Z,16.00
2023-04-09T22:29:00.645Z,19.80
2023-04-09T22:31:49.189Z,14.63
2023-04-09T22:34:37.755Z,14.70
2023-04-09T22:37:26.374Z,16.00
2023-04-09T22:40:16.719Z,14.43
2023-04-09T22:43:05.710Z,13.47
2023-04-09T22:45:55.171Z,15.30
2023-04-09T22:48:44.899Z,13.97
2023-04-09T22:51:34.950Z,18.63
2023-04-09T22:54:24.562Z,12.90
2023-04-09T22:57:14.532Z,22.80
2023-04-09T23:00:05.027Z,14.33
2023-04-09T23:02:53.670Z,13.10
2023-04-09T23:05:42.351Z,14.53
2023-04-09T23:08:31.164Z,13.70
2023-04-09T23:11:19.790Z,14.00
2023-04-09T23:14:09.703Z,13.53
2023-04-09T23:16:58.271Z,14.57
2023-04-09T23:19:46.991Z,14.87
2023-04-09T23:22:35.489Z,15.13
2023-04-09T23:25:24.024Z,13.87
2023-04-09T23:28:12.577Z,15.20
2023-04-09T23:31:02.469Z,13.40
2023-04-09T23:33:52.016Z,11.90
2023-04-09T23:36:40.824Z,13.00
2023-04-09T23:39:29.582Z,14.93
2023-04-09T23:42:18.183Z,14.00
2023-04-09T23:45:07.806Z,12.30
2023-04-09T23:47:57.784Z,14.60
2023-04-09T23:50:47.693Z,14.17
2023-04-09T23:53:36.292Z,13.93
2023-04-09T23:56:25.113Z,13.33
2023-04-09T23:59:13.788Z,13.20
